createdAt,value
2023-04-02T00:00:50.228Z,0.30
2023-04-02T00:01:50.221Z,0.30
2023-04-02T00:02:50.352Z,0.50
2023-04-02T00:03:50.185Z,0.50
2023-04-02T00:04:50.186Z,0.40
2023-04-02T00:05:50.184Z,0.40
2023-04-02T00:06:50.168Z,0.40
2023-04-02T00:07:50.139Z,0.40
2023-04-02T00:08:50.168Z,0.50
2023-04-02T00:09:50.134Z,0.50
2023-04-02T00:10:50.139Z,0.50
2023-04-02T00:11:50.108Z,0.40
2023-04-02T00:12:50.098Z,0.50
2023-04-02T00:13:50.118Z,0.60
2023-04-02T00:14:50.077Z,0.90
2023-04-02T00:15:50.056Z,0.90
2023-04-02T00:16:50.114Z,0.40
2023-04-02T00:17:50.070Z,0.70
2023-04-02T00:18:50.072Z,0.40
2023-04-02T00:19:50.005Z,0.60
2023-04-02T00:20:50.014Z,0.40
2023-04-02T00:21:50.006Z,0.40
2023-04-02T00:22:49.996Z,0.40
2023-04-02T00:23:49.966Z,0.60
2023-04-02T00:24:49.986Z,0.50
2023-04-02T00:25:49.950Z,0.50
2023-04-02T00:26:49.953Z,0.50
2023-04-02T00:27:49.928Z,0.70
2023-04-02T00:28:49.976Z,0.30
2023-04-02T00:29:49.909Z,0.50
2023-04-02T00:30:49.935Z,0.80
2023-04-02T00:31:49.904Z,0.50
2023-04-02T00:32:49.900Z,0.30
2023-04-02T00:33:49.884Z,0.40
2023-04-02T00:34:49.884Z,0.60
2023-04-02T00:35:49.870Z,0.50
2023-04-02T00:36:49.859Z,0.40
2023-04-02T00:37:49.813Z,0.60
2023-04-02T00:38:49.831Z,0.60
2023-04-02T00:39:49.791Z,0.40
2023-04-02T00:40:49.830Z,0.50
2023-04-02T00:41:49.771Z,0.60
2023-04-02T00:42:49.776Z,0.40
2023-04-02T00:43:49.758Z,0.40
2023-04-02T00:44:49.768Z,0.40
2023-04-02T00:45:49.773Z,0.50
2023-04-02T00:46:49.980Z,0.40
2023-04-02T00:47:49.751Z,0.50
2023-04-02T00:48:49.708Z,0.60
2023-04-02T00:49:49.686Z,0.50
2023-04-02T00:50:49.719Z,0.70
2023-04-02T00:51:49.665Z,0.50
2023-04-02T00:52:49.688Z,0.80
2023-04-02T00:53:49.645Z,0.50
2023-04-02T00:54:49.669Z,0.50
2023-04-02T00:55:49.622Z,0.70
2023-04-02T00:56:49.676Z,0.70
2023-04-02T00:57:49.628Z,0.50
2023-04-02T00:58:49.624Z,0.90
2023-04-02T00:59:49.606Z,0.50
2023-04-02T01:00:49.594Z,0.50
2023-04-02T01:01:49.586Z,0.50
2023-04-02T01:02:49.608Z,0.50
2023-04-02T01:03:49.567Z,0.70
2023-04-02T01:04:49.538Z,0.70
2023-04-02T01:05:49.507Z,0.50
2023-04-02T01:06:49.531Z,0.60
2023-04-02T01:07:49.485Z,0.40
2023-04-02T01:08:49.508Z,1.40
2023-04-02T01:09:49.466Z,0.40
2023-04-02T01:10:49.483Z,0.50
2023-04-02T01:11:49.444Z,0.40
2023-04-02T01:12:49.461Z,0.70
2023-04-02T01:13:49.424Z,0.80
2023-04-02T01:14:49.446Z,0.60
2023-04-02T01:15:49.402Z,0.60
2023-04-02T01:16:49.417Z,0.70
2023-04-02T01:17:49.413Z,0.50
2023-04-02T01:18:49.382Z,0.70
2023-04-02T01:19:49.368Z,0.80
2023-04-02T01:20:49.365Z,0.60
2023-04-02T01:21:49.333Z,0.70
2023-04-02T01:22:49.341Z,0.60
2023-04-02T01:23:49.320Z,0.90
2023-04-02T01:24:49.323Z,0.50
2023-04-02T01:25:49.288Z,0.60
2023-04-02T01:26:49.327Z,0.50
2023-04-02T01:27:49.263Z,0.90
2023-04-02T01:28:49.289Z,0.70
2023-04-02T01:29:49.270Z,0.70
2023-04-02T01:30:49.295Z,0.50
2023-04-02T01:31:49.276Z,0.90
2023-04-02T01:32:49.292Z,0.40
2023-04-02T01:33:49.202Z,0.50
2023-04-02T01:34:49.255Z,0.80
2023-04-02T01:35:49.216Z,0.50
2023-04-02T01:36:49.207Z,0.50
2023-04-02T01:37:49.163Z,0.60
2023-04-02T01:38:49.168Z,0.60
2023-04-02T01:39:49.155Z,0.80
2023-04-02T01:40:49.156Z,0.40
2023-04-02T01:41:49.126Z,0.50
2023-04-02T01:42:49.149Z,0.70
2023-04-02T01:43:49.094Z,0.80
2023-04-02T01:44:49.102Z,0.40
2023-04-02T01:45:49.090Z,0.70
2023-04-02T01:46:49.166Z,0.30
2023-04-02T01:47:49.140Z,0.70
2023-04-02T01:48:49.081Z,0.30
2023-04-02T01:49:49.040Z,0.80
2023-04-02T01:50:49.047Z,0.60
2023-04-02T01:51:49.005Z,0.70
2023-04-02T01:52:49.024Z,1.20
2023-04-02T01:53:48.994Z,0.50
2023-04-02T01:54:49.003Z,0.60
2023-04-02T01:55:48.990Z,0.60
2023-04-02T01:56:48.980Z,0.70
2023-04-02T01:57:48.941Z,0.60
2023-04-02T01:58:48.957Z,0.70
2023-04-02T01:59:48.919Z,0.60
2023-04-02T02:00:48.982Z,0.60
2023-04-02T02:01:48.918Z,0.70
2023-04-02T02:02:48.957Z,0.70
2023-04-02T02:03:48.873Z,0.60
2023-04-02T02:04:48.893Z,0.40
2023-04-02T02:05:48.871Z,1.00
2023-04-02T02:06:48.873Z,1.10
2023-04-02T02:07:48.836Z,0.50
2023-04-02T02:08:48.886Z,0.70
2023-04-02T02:09:48.813Z,0.50
2023-04-02T02:10:48.827Z,1.40
2023-04-02T02:11:48.794Z,0.70
2023-04-02T02:12:48.798Z,0.80
2023-04-02T02:13:48.767Z,0.50
2023-04-02T02:14:48.781Z,0.60
2023-04-02T02:15:48.752Z,0.80
2023-04-02T02:16:48.815Z,0.90
2023-04-02T02:17:48.737Z,0.40
2023-04-02T02:18:48.731Z,0.80
2023-04-02T02:19:48.704Z,1.10
2023-04-02T02:20:48.728Z,1.00
2023-04-02T02:21:48.718Z,0.70
2023-04-02T02:22:48.706Z,0.70
2023-04-02T02:23:48.675Z,0.50
2023-04-02T02:24:48.650Z,0.60
2023-04-02T02:25:48.671Z,0.90
2023-04-02T02:26:48.630Z,0.60
2023-04-02T02:27:48.663Z,0.90
2023-04-02T02:28:48.639Z,0.80
2023-04-02T02:29:48.629Z,0.70
2023-04-02T02:30:48.618Z,0.70
2023-04-02T02:31:48.631Z,0.50
2023-04-02T02:32:48.606Z,0.60
2023-04-02T02:33:48.589Z,0.60
2023-04-02T02:34:48.543Z,0.60
2023-04-02T02:35:48.620Z,1.00
2023-04-02T02:36:48.519Z,0.90
2023-04-02T02:37:48.546Z,0.80
2023-04-02T02:38:48.525Z,0.90
2023-04-02T02:39:48.508Z,0.80
2023-04-02T02:40:48.477Z,0.90
2023-04-02T02:41:48.503Z,0.70
2023-04-02T02:42:48.461Z,0.80
2023-04-02T02:43:48.475Z,0.70
2023-04-02T02:44:48.451Z,0.60
2023-04-02T02:45:48.494Z,0.80
2023-04-02T02:46:48.420Z,0.80
2023-04-02T02:47:48.468Z,0.50
2023-04-02T02:48:48.389Z,0.40
2023-04-02T02:49:48.396Z,1.00
2023-04-02T02:50:48.382Z,0.70
2023-04-02T02:51:48.388Z,0.50
2023-04-02T02:52:48.362Z,0.60
2023-04-02T02:53:48.362Z,0.70
2023-04-02T02:54:48.338Z,0.80
2023-04-02T02:55:48.344Z,0.60
2023-04-02T02:56:48.342Z,0.70
2023-04-02T02:57:48.359Z,0.90
2023-04-02T02:58:48.281Z,0.90
2023-04-02T02:59:48.314Z,0.90
2023-04-02T03:00:48.287Z,1.10
2023-04-02T03:01:48.363Z,0.80
2023-04-02T03:02:48.344Z,1.00
2023-04-02T03:03:48.365Z,1.20
2023-04-02T03:04:48.231Z,0.80
2023-04-02T03:05:48.252Z,0.70
2023-04-02T03:06:48.194Z,0.90
2023-04-02T03:07:48.237Z,0.60
2023-04-02T03:08:48.170Z,0.80
2023-04-02T03:09:48.218Z,0.70
2023-04-02T03:10:48.157Z,1.10
2023-04-02T03:11:48.160Z,0.80
2023-04-02T03:12:48.129Z,0.70
2023-04-02T03:13:48.147Z,0.70
2023-04-02T03:14:48.119Z,0.70
2023-04-02T03:15:48.168Z,0.70
2023-04-02T03:16:48.089Z,0.70
2023-04-02T03:17:48.114Z,1.10
2023-04-02T03:18:48.063Z,0.80
2023-04-02T03:19:48.084Z,0.90
2023-04-02T03:20:48.055Z,0.80
2023-04-02T03:21:48.063Z,0.80
2023-04-02T03:22:48.039Z,1.00
2023-04-02T03:23:48.046Z,1.10
2023-04-02T03:24:48.007Z,0.70
2023-04-02T03:25:48.021Z,1.10
2023-04-02T03:26:47.988Z,0.90
2023-04-02T03:27:48.003Z,0.90
2023-04-02T03:28:47.957Z,1.30
2023-04-02T03:29:47.991Z,1.00
2023-04-02T03:30:47.968Z,0.60
2023-04-02T03:31:47.956Z,1.00
2023-04-02T03:32:47.945Z,0.70
2023-04-02T03:33:47.928Z,1.00
2023-04-02T03:34:47.893Z,0.90
2023-04-02T03:35:47.911Z,1.20
2023-04-02T03:36:47.883Z,0.90
2023-04-02T03:37:47.899Z,0.70
2023-04-02T03:38:47.848Z,1.10
2023-04-02T03:39:47.858Z,0.90
2023-04-02T03:40:47.831Z,0.60
2023-04-02T03:41:47.876Z,1.20
2023-04-02T03:42:47.811Z,0.70
2023-04-02T03:43:47.853Z,1.00
2023-04-02T03:44:47.785Z,0.80
2023-04-02T03:45:47.815Z,0.70
2023-04-02T03:46:47.892Z,0.90
2023-04-02T03:47:47.797Z,1.00
2023-04-02T03:48:47.743Z,0.90
2023-04-02T03:49:47.772Z,1.00
2023-04-02T03:50:47.723Z,0.80
2023-04-02T03:51:47.748Z,1.00
2023-04-02T03:52:47.709Z,1.00
2023-04-02T03:53:47.710Z,0.80
2023-04-02T03:54:53.889Z,1.50
2023-04-02T03:55:47.704Z,0.90
2023-04-02T03:56:47.794Z,0.90
2023-04-02T03:57:47.675Z,0.50
2023-04-02T03:58:47.643Z,1.00
2023-04-02T03:59:47.660Z,1.00
2023-04-02T04:00:47.624Z,1.10
2023-04-02T04:01:47.657Z,1.60
2023-04-02T04:02:47.599Z,1.20
2023-04-02T04:03:47.631Z,0.60
2023-04-02T04:04:47.578Z,1.30
2023-04-02T04:05:47.588Z,0.70
2023-04-02T04:06:47.548Z,0.90
2023-04-02T04:07:47.559Z,1.20
2023-04-02T04:08:47.532Z,1.00
2023-04-02T04:09:47.550Z,0.90
2023-04-02T04:10:47.564Z,1.00
2023-04-02T04:11:47.514Z,1.00
2023-04-02T04:12:47.486Z,1.10
2023-04-02T04:13:47.491Z,0.80
2023-04-02T04:14:47.482Z,1.10
2023-04-02T04:15:47.487Z,0.70
2023-04-02T04:16:47.569Z,1.00
2023-04-02T04:17:47.473Z,0.70
2023-04-02T04:18:47.421Z,1.00
2023-04-02T04:19:47.433Z,1.00
2023-04-02T04:20:47.405Z,1.00
2023-04-02T04:21:47.428Z,0.90
2023-04-02T04:22:47.372Z,1.00
2023-04-02T04:23:47.405Z,0.90
2023-04-02T04:24:47.369Z,0.70
2023-04-02T04:25:47.385Z,1.20
2023-04-02T04:26:47.332Z,0.90
2023-04-02T04:27:47.362Z,0.90
2023-04-02T04:28:47.310Z,1.00
2023-04-02T04:29:47.333Z,1.10
2023-04-02T04:30:47.296Z,1.10
2023-04-02T04:31:47.418Z,1.10
2023-04-02T04:32:47.293Z,0.90
2023-04-02T04:33:47.284Z,1.10
2023-04-02T04:34:47.189Z,1.20
2023-04-02T04:35:47.211Z,0.90
2023-04-02T04:36:47.240Z,1.10
2023-04-02T04:37:47.244Z,1.00
2023-04-02T04:38:47.199Z,1.00
2023-04-02T04:39:47.233Z,0.70
2023-04-02T04:40:47.135Z,1.20
2023-04-02T04:41:47.195Z,1.10
2023-04-02T04:42:47.161Z,0.80
2023-04-02T04:43:47.143Z,1.00
2023-04-02T04:44:47.084Z,0.70
2023-04-02T04:45:47.195Z,0.90
2023-04-02T04:46:47.066Z,1.30
2023-04-02T04:47:47.100Z,1.50
2023-04-02T04:48:47.041Z,1.20
2023-04-02T04:49:47.046Z,1.20
2023-04-02T04:50:47.044Z,1.10
2023-04-02T04:51:47.045Z,0.80
2023-04-02T04:52:46.999Z,1.00
2023-04-02T04:53:47.019Z,1.60
2023-04-02T04:54:46.975Z,0.80
2023-04-02T04:55:46.987Z,0.90
2023-04-02T04:56:46.978Z,1.00
2023-04-02T04:57:46.965Z,1.10
2023-04-02T04:58:46.936Z,0.60
2023-04-02T04:59:46.945Z,0.90
2023-04-02T05:00:47.787Z,1.20
2023-04-02T05:01:46.997Z,1.20
2023-04-02T05:02:46.917Z,0.80
2023-04-02T05:03:46.902Z,1.10
2023-04-02T05:04:46.935Z,0.90
2023-04-02T05:05:46.874Z,0.80
2023-04-02T05:06:46.861Z,1.00
2023-04-02T05:07:46.849Z,1.20
2023-04-02T05:08:46.843Z,1.00
2023-04-02T05:09:46.828Z,1.00
2023-04-02T05:10:46.804Z,1.00
2023-04-02T05:11:46.813Z,0.80
2023-04-02T05:12:46.777Z,0.90
2023-04-02T05:13:46.783Z,1.00
2023-04-02T05:14:46.764Z,0.70
2023-04-02T05:15:46.826Z,0.90
2023-04-02T05:16:46.744Z,1.90
2023-04-02T05:17:46.818Z,0.80
2023-04-02T05:18:46.716Z,1.00
2023-04-02T05:19:46.738Z,0.70
2023-04-02T05:20:46.692Z,0.70
2023-04-02T05:21:46.697Z,0.90
2023-04-02T05:22:46.672Z,1.00
2023-04-02T05:23:46.699Z,1.10
2023-04-02T05:24:46.645Z,0.60
2023-04-02T05:25:46.653Z,0.90
2023-04-02T05:26:46.645Z,0.80
2023-04-02T05:27:46.737Z,0.80
2023-04-02T05:28:46.614Z,0.80
2023-04-02T05:29:46.609Z,0.60
2023-04-02T05:30:46.613Z,1.10
2023-04-02T05:31:46.706Z,0.80
2023-04-02T05:32:46.604Z,0.70
2023-04-02T05:33:46.581Z,0.70
2023-04-02T05:34:46.544Z,1.00
2023-04-02T05:35:46.607Z,0.80
2023-04-02T05:36:46.520Z,1.10
2023-04-02T05:37:46.529Z,0.70
2023-04-02T05:38:46.507Z,1.20
2023-04-02T05:39:46.509Z,0.80
2023-04-02T05:40:46.479Z,0.90
2023-04-02T05:41:46.484Z,1.00
2023-04-02T05:42:46.471Z,0.80
2023-04-02T05:43:46.507Z,1.10
2023-04-02T05:44:46.436Z,0.80
2023-04-02T05:45:46.458Z,1.30
2023-04-02T05:46:46.482Z,1.00
2023-04-02T05:47:46.428Z,1.00
2023-04-02T05:48:46.403Z,0.70
2023-04-02T05:49:46.416Z,1.00
2023-04-02T05:50:46.372Z,1.20
2023-04-02T05:51:46.400Z,1.20
2023-04-02T05:52:46.356Z,1.00
2023-04-02T05:53:46.370Z,0.90
2023-04-02T05:54:46.341Z,1.10
2023-04-02T05:55:46.341Z,0.90
2023-04-02T05:56:46.304Z,0.90
2023-04-02T05:58:46.321Z,0.90
2023-04-02T05:59:46.315Z,0.80
2023-04-02T06:00:46.263Z,0.80
2023-04-02T06:01:46.339Z,1.20
2023-04-02T06:02:46.274Z,0.80
2023-04-02T06:03:46.359Z,0.90
2023-04-02T06:04:46.241Z,1.00
2023-04-02T06:05:46.250Z,1.10
2023-04-02T06:06:46.195Z,0.90
2023-04-02T06:07:46.202Z,0.70
2023-04-02T06:08:46.178Z,1.10
2023-04-02T06:09:46.189Z,0.90
2023-04-02T06:10:46.168Z,1.20
2023-04-02T06:11:46.176Z,1.20
2023-04-02T06:12:46.179Z,1.10
2023-04-02T06:13:46.155Z,1.10
2023-04-02T06:14:46.113Z,1.10
2023-04-02T06:15:47.652Z,1.10
2023-04-02T06:16:46.133Z,1.20
2023-04-02T06:17:46.148Z,1.10
2023-04-02T06:18:46.067Z,0.80
2023-04-02T06:19:46.094Z,0.90
2023-04-02T06:20:46.048Z,1.00
2023-04-02T06:21:46.079Z,1.10
2023-04-02T06:22:46.023Z,1.00
2023-04-02T06:23:46.054Z,1.20
2023-04-02T06:24:46.009Z,0.90
2023-04-02T06:25:46.014Z,0.90
2023-04-02T06:26:45.996Z,1.10
2023-04-02T06:27:45.995Z,1.20
2023-04-02T06:28:45.959Z,0.80
2023-04-02T06:29:45.983Z,1.20
2023-04-02T06:30:45.949Z,1.00
2023-04-02T06:31:47.410Z,1.00
2023-04-02T06:32:45.960Z,1.10
2023-04-02T06:33:45.921Z,0.90
2023-04-02T06:34:45.904Z,1.00
2023-04-02T06:35:45.964Z,1.40
2023-04-02T06:36:45.887Z,1.10
2023-04-02T06:37:45.879Z,1.10
2023-04-02T06:38:45.865Z,1.00
2023-04-02T06:39:45.845Z,1.00
2023-04-02T06:40:45.848Z,0.90
2023-04-02T06:41:45.833Z,1.80
2023-04-02T06:42:45.860Z,1.00
2023-04-02T06:43:45.802Z,1.90
2023-04-02T06:44:45.811Z,0.90
2023-04-02T06:45:45.812Z,1.30
2023-04-02T06:46:45.790Z,1.20
2023-04-02T06:47:45.816Z,1.10
2023-04-02T06:48:45.774Z,1.10
2023-04-02T06:49:45.764Z,1.20
2023-04-02T06:50:45.758Z,1.20
2023-04-02T06:51:45.714Z,1.40
2023-04-02T06:52:45.751Z,1.50
2023-04-02T06:53:45.694Z,1.40
2023-04-02T06:54:45.727Z,1.30
2023-04-02T06:55:45.676Z,1.70
2023-04-02T06:56:45.703Z,1.40
2023-04-02T06:57:45.664Z,1.50
2023-04-02T06:58:45.718Z,1.10
2023-04-02T06:59:45.651Z,1.10
2023-04-02T07:00:45.698Z,1.80
2023-04-02T07:01:45.647Z,1.00
2023-04-02T07:02:45.699Z,1.30
2023-04-02T07:03:45.603Z,1.00
2023-04-02T07:04:45.714Z,1.30
2023-04-02T07:05:45.599Z,0.90
2023-04-02T07:06:45.585Z,1.20
2023-04-02T07:07:44.566Z,1.10
2023-04-02T07:08:45.574Z,1.70
2023-04-02T07:09:45.538Z,1.20
2023-04-02T07:10:45.579Z,1.60
2023-04-02T07:11:45.535Z,1.40
2023-04-02T07:12:45.522Z,1.30
2023-04-02T07:13:45.496Z,1.70
2023-04-02T07:14:45.536Z,1.30
2023-04-02T07:15:45.492Z,1.20
2023-04-02T07:16:45.473Z,2.10
2023-04-02T07:17:45.488Z,1.30
2023-04-02T07:18:45.478Z,1.50
2023-04-02T07:19:45.441Z,1.40
2023-04-02T07:20:45.537Z,1.30
2023-04-02T07:21:45.413Z,1.30
2023-04-02T07:22:45.462Z,1.60
2023-04-02T07:23:45.393Z,1.60
2023-04-02T07:24:45.413Z,1.30
2023-04-02T07:25:45.360Z,1.00
2023-04-02T07:26:45.354Z,1.20
2023-04-02T07:27:45.325Z,0.90
2023-04-02T07:28:45.321Z,1.60
2023-04-02T07:29:45.308Z,1.30
2023-04-02T07:30:45.324Z,1.00
2023-04-02T07:31:45.292Z,1.30
2023-04-02T07:32:45.319Z,1.20
2023-04-02T07:33:45.262Z,1.00
2023-04-02T07:34:45.289Z,1.40
2023-04-02T07:35:45.234Z,1.30
2023-04-02T07:36:45.236Z,1.30
2023-04-02T07:37:45.209Z,1.20
2023-04-02T07:38:45.226Z,1.30
2023-04-02T07:39:45.185Z,0.70
2023-04-02T07:40:45.211Z,0.60
2023-04-02T07:41:45.179Z,0.40
2023-04-02T07:42:45.174Z,0.40
2023-04-02T07:43:45.152Z,0.50
2023-04-02T07:44:45.172Z,0.60
2023-04-02T07:45:45.126Z,0.40
2023-04-02T07:46:45.181Z,0.30
2023-04-02T07:47:45.166Z,0.60
2023-04-02T07:48:45.122Z,0.40
2023-04-02T07:49:45.093Z,0.40
2023-04-02T07:50:45.098Z,1.00
2023-04-02T07:51:45.057Z,0.30
2023-04-02T07:52:45.079Z,0.30
2023-04-02T07:53:45.053Z,0.30
2023-04-02T07:54:45.057Z,0.20
2023-04-02T07:55:45.012Z,0.20
2023-04-02T07:56:45.055Z,0.20
2023-04-02T07:57:46.420Z,0.20
2023-04-02T07:58:44.997Z,0.30
2023-04-02T07:59:44.997Z,0.20
2023-04-02T08:00:44.981Z,0.30
2023-04-02T08:01:44.972Z,0.20
2023-04-02T08:02:44.965Z,0.20
2023-04-02T08:03:45.009Z,0.20
2023-04-02T08:04:44.948Z,0.20
2023-04-02T08:05:44.922Z,0.10
2023-04-02T08:06:44.927Z,0.20
2023-04-02T08:07:44.885Z,0.20
2023-04-02T08:08:44.891Z,0.20
2023-04-02T08:09:44.862Z,0.20
2023-04-02T08:10:44.868Z,0.30
2023-04-02T08:11:44.854Z,0.10
2023-04-02T08:12:44.915Z,0.20
2023-04-02T08:13:44.821Z,0.20
2023-04-02T08:14:44.835Z,0.30
2023-04-02T08:15:44.805Z,0.20
2023-04-02T08:16:44.870Z,0.30
2023-04-02T08:17:44.813Z,0.20
2023-04-02T08:18:44.806Z,0.40
2023-04-02T08:19:54.235Z,0.20
2023-04-02T08:20:44.784Z,0.30
2023-04-02T08:21:44.750Z,0.20
2023-04-02T08:22:44.738Z,0.40
2023-04-02T08:23:44.720Z,0.20
2023-04-02T08:24:44.720Z,0.30
2023-04-02T08:25:44.706Z,0.20
2023-04-02T08:26:45.539Z,0.20
2023-04-02T08:27:44.691Z,0.40
2023-04-02T08:28:44.699Z,0.20
2023-04-02T08:29:44.668Z,0.20
2023-04-02T08:30:44.700Z,0.20
2023-04-02T08:31:44.639Z,0.30
2023-04-02T08:32:44.698Z,0.20
2023-04-02T08:33:44.611Z,0.40
2023-04-02T08:34:44.617Z,0.20
2023-04-02T08:35:44.633Z,0.30
2023-04-02T08:36:44.632Z,0.20
2023-04-02T08:37:44.592Z,0.20
2023-04-02T08:38:44.596Z,0.20
2023-04-02T08:39:44.551Z,0.30
2023-04-02T08:40:44.553Z,0.20
2023-04-02T08:41:44.528Z,0.30
2023-04-02T08:42:44.534Z,0.30
2023-04-02T08:43:44.513Z,0.30
2023-04-02T08:44:44.559Z,0.20
2023-04-02T08:45:44.507Z,0.30
2023-04-02T08:46:44.501Z,0.20
2023-04-02T08:47:44.502Z,0.30
2023-04-02T08:48:44.462Z,0.30
2023-04-02T08:49:44.435Z,0.30
2023-04-02T08:50:44.464Z,0.20
2023-04-02T08:51:44.424Z,0.40
2023-04-02T08:52:44.443Z,0.30
2023-04-02T08:53:44.416Z,0.30
2023-04-02T08:54:44.397Z,0.20
2023-04-02T08:55:44.403Z,0.30
2023-04-02T08:56:44.388Z,0.20
2023-04-02T08:57:44.353Z,0.40
2023-04-02T08:58:44.388Z,0.30
2023-04-02T08:59:44.351Z,0.30
2023-04-02T09:00:44.345Z,0.20
2023-04-02T09:01:44.332Z,0.30
2023-04-02T09:02:44.345Z,0.50
2023-04-02T09:03:44.285Z,0.30
2023-04-02T09:04:44.353Z,0.20
2023-04-02T09:05:44.280Z,0.30
2023-04-02T09:06:44.285Z,0.30
2023-04-02T09:07:44.243Z,0.30
2023-04-02T09:08:44.264Z,0.30
2023-04-02T09:09:44.224Z,0.20
2023-04-02T09:10:44.255Z,0.30
2023-04-02T09:11:44.219Z,0.30
2023-04-02T09:12:44.214Z,0.20
2023-04-02T09:13:44.173Z,0.30
2023-04-02T09:14:44.179Z,0.30
2023-04-02T09:15:44.213Z,0.30
2023-04-02T09:16:44.175Z,0.20
2023-04-02T09:17:53.680Z,0.40
2023-04-02T09:18:44.176Z,0.20
2023-04-02T09:19:44.146Z,0.20
2023-04-02T09:20:44.137Z,0.30
2023-04-02T09:21:44.097Z,0.20
2023-04-02T09:22:44.107Z,0.40
2023-04-02T09:23:44.089Z,0.20
2023-04-02T09:24:44.100Z,0.30
2023-04-02T09:25:48.483Z,0.30
2023-04-02T09:26:44.076Z,0.20
2023-04-02T09:27:44.028Z,0.20
2023-04-02T09:28:44.050Z,0.20
2023-04-02T09:29:44.001Z,0.30
2023-04-02T09:30:44.023Z,0.20
2023-04-02T09:31:44.052Z,0.30
2023-04-02T09:32:44.042Z,0.20
2023-04-02T09:33:44.040Z,0.30
2023-04-02T09:34:43.964Z,0.20
2023-04-02T09:35:44.145Z,0.20
2023-04-02T09:36:43.959Z,0.20
2023-04-02T09:37:43.918Z,0.30
2023-04-02T09:38:43.940Z,0.20
2023-04-02T09:39:43.930Z,0.40
2023-04-02T09:40:43.908Z,0.20
2023-04-02T09:41:46.366Z,0.20
2023-04-02T09:42:43.884Z,0.30
2023-04-02T09:43:43.865Z,0.40
2023-04-02T09:44:43.859Z,0.30
2023-04-02T09:45:43.829Z,0.20
2023-04-02T09:46:43.868Z,0.30
2023-04-02T09:47:43.851Z,0.30
2023-04-02T09:48:43.834Z,0.40
2023-04-02T09:49:43.805Z,0.20
2023-04-02T09:50:43.869Z,0.40
2023-04-02T09:51:43.767Z,0.30
2023-04-02T09:52:43.806Z,0.30
2023-04-02T09:53:43.739Z,0.20
2023-04-02T09:54:43.775Z,0.40
2023-04-02T09:55:43.744Z,0.30
2023-04-02T09:56:43.754Z,0.50
2023-04-02T09:57:43.745Z,0.20
2023-04-02T09:58:43.715Z,0.30
2023-04-02T09:59:43.687Z,0.30
2023-04-02T10:00:43.857Z,0.30
2023-04-02T10:01:43.702Z,0.30
2023-04-02T10:02:43.679Z,0.20
2023-04-02T10:03:43.634Z,0.30
2023-04-02T10:04:43.727Z,0.30
2023-04-02T10:05:43.892Z,0.30
2023-04-02T10:06:43.631Z,0.30
2023-04-02T10:07:43.632Z,0.20
2023-04-02T10:08:43.617Z,0.50
2023-04-02T10:09:43.567Z,0.40
2023-04-02T10:10:43.608Z,0.30
2023-04-02T10:12:43.583Z,0.30
2023-04-02T10:13:43.523Z,0.30
2023-04-02T10:14:43.529Z,0.40
2023-04-02T10:15:43.505Z,0.30
2023-04-02T10:16:43.548Z,0.30
2023-04-02T10:17:43.526Z,0.20
2023-04-02T10:18:43.498Z,0.40
2023-04-02T10:19:43.471Z,0.30
2023-04-02T10:20:50.857Z,0.30
2023-04-02T10:21:43.446Z,0.30
2023-04-02T10:22:43.468Z,0.30
2023-04-02T10:23:43.424Z,0.20
2023-04-02T10:24:43.419Z,0.30
2023-04-02T10:25:43.393Z,0.20
2023-04-02T10:26:43.409Z,0.20
2023-04-02T10:27:43.382Z,0.40
2023-04-02T10:28:43.408Z,0.40
2023-04-02T10:29:43.352Z,0.20
2023-04-02T10:30:43.384Z,0.30
2023-04-02T10:31:43.336Z,0.20
2023-04-02T10:32:43.410Z,0.40
2023-04-02T10:33:43.315Z,0.30
2023-04-02T10:34:43.411Z,0.30
2023-04-02T10:35:43.311Z,0.20
2023-04-02T10:36:43.297Z,0.40
2023-04-02T10:37:43.265Z,0.30
2023-04-02T10:38:43.296Z,0.50
2023-04-02T10:39:43.251Z,0.50
2023-04-02T10:40:43.251Z,0.30
2023-04-02T10:41:43.221Z,0.20
2023-04-02T10:42:43.265Z,0.30
2023-04-02T10:43:43.198Z,0.20
2023-04-02T10:44:43.206Z,0.40
2023-04-02T10:45:43.248Z,0.30
2023-04-02T10:46:43.275Z,0.30
2023-04-02T10:47:43.189Z,0.20
2023-04-02T10:48:43.175Z,0.30
2023-04-02T10:49:43.240Z,0.30
2023-04-02T10:50:43.156Z,0.30
2023-04-02T10:51:43.121Z,0.30
2023-04-02T10:52:43.131Z,0.30
2023-04-02T10:53:43.106Z,0.30
2023-04-02T10:54:43.115Z,0.30
2023-04-02T10:55:43.115Z,0.30
2023-04-02T10:56:50.741Z,0.30
2023-04-02T10:57:43.217Z,0.50
2023-04-02T10:58:43.048Z,0.20
2023-04-02T10:59:43.059Z,0.30
2023-04-02T11:00:43.025Z,0.30
2023-04-02T11:01:43.064Z,0.30
2023-04-02T11:02:43.093Z,0.20
2023-04-02T11:03:43.350Z,0.20
2023-04-02T11:04:42.975Z,0.40
2023-04-02T11:05:42.994Z,0.30
2023-04-02T11:06:42.972Z,0.30
2023-04-02T11:07:42.958Z,0.30
2023-04-02T11:08:42.958Z,0.20
2023-04-02T11:09:42.931Z,0.30
2023-04-02T11:10:42.926Z,0.20
2023-04-02T11:11:42.913Z,0.50
2023-04-02T11:12:42.920Z,0.20
2023-04-02T11:13:42.929Z,0.40
2023-04-02T11:14:42.868Z,0.20
2023-04-02T11:15:42.903Z,0.40
2023-04-02T11:16:44.518Z,0.50
2023-04-02T11:17:42.905Z,0.30
2023-04-02T11:18:42.820Z,0.30
2023-04-02T11:19:42.842Z,0.60
2023-04-02T11:20:42.798Z,0.30
2023-04-02T11:21:57.415Z,0.40
2023-04-02T11:22:42.792Z,0.20
2023-04-02T11:23:42.798Z,0.50
2023-04-02T11:24:42.765Z,0.30
2023-04-02T11:25:42.768Z,0.30
2023-04-02T11:26:42.759Z,0.30
2023-04-02T11:27:42.750Z,0.40
2023-04-02T11:28:42.707Z,0.30
2023-04-02T11:29:42.714Z,0.20
2023-04-02T11:30:42.697Z,0.40
2023-04-02T11:31:42.846Z,0.30
2023-04-02T11:32:42.936Z,0.40
2023-04-02T11:33:45.508Z,0.30
2023-04-02T11:34:42.653Z,0.50
2023-04-02T11:35:42.722Z,0.30
2023-04-02T11:36:42.631Z,0.40
2023-04-02T11:37:42.694Z,0.20
2023-04-02T11:38:42.625Z,0.50
2023-04-02T11:39:42.609Z,0.30
2023-04-02T11:40:42.592Z,0.30
2023-04-02T11:41:42.584Z,0.20
2023-04-02T11:42:42.579Z,0.40
2023-04-02T11:43:42.564Z,0.30
2023-04-02T11:44:42.542Z,0.30
2023-04-02T11:45:51.941Z,0.20
2023-04-02T11:46:42.559Z,0.30
2023-04-02T11:47:42.570Z,0.40
2023-04-02T11:48:42.495Z,0.30
2023-04-02T11:49:42.514Z,0.30
2023-04-02T11:50:42.500Z,0.30
2023-04-02T11:51:42.478Z,0.30
2023-04-02T11:52:42.478Z,0.40
2023-04-02T11:53:42.480Z,0.40
2023-04-02T11:54:42.437Z,0.30
2023-04-02T11:55:42.441Z,0.40
2023-04-02T11:56:42.411Z,0.60
2023-04-02T11:57:42.527Z,0.40
2023-04-02T11:58:42.382Z,0.30
2023-04-02T11:59:42.410Z,0.50
2023-04-02T12:00:42.382Z,0.40
2023-04-02T12:01:42.458Z,0.30
2023-04-02T12:02:42.580Z,0.50
2023-04-02T12:03:42.363Z,0.50
2023-04-02T12:04:42.327Z,0.40
2023-04-02T12:05:42.421Z,0.40
2023-04-02T12:06:42.301Z,0.50
2023-04-02T12:07:42.321Z,0.50
2023-04-02T12:08:56.662Z,0.50
2023-04-02T12:09:42.284Z,0.40
2023-04-02T12:10:42.252Z,0.30
2023-04-02T12:11:42.284Z,0.30
2023-04-02T12:12:42.228Z,0.50
2023-04-02T12:13:42.281Z,0.40
2023-04-02T12:14:42.216Z,0.50
2023-04-02T12:15:42.246Z,0.70
2023-04-02T12:16:42.224Z,0.40
2023-04-02T12:17:42.256Z,0.50
2023-04-02T12:18:42.163Z,0.30
2023-04-02T12:19:42.182Z,0.40
2023-04-02T12:20:42.184Z,0.60
2023-04-02T12:21:42.156Z,0.50
2023-04-02T12:22:42.131Z,0.40
2023-04-02T12:23:42.126Z,0.50
2023-04-02T12:24:42.117Z,0.50
2023-04-02T12:25:42.102Z,0.50
2023-04-02T12:26:42.093Z,0.50
2023-04-02T12:27:42.107Z,0.30
2023-04-02T12:28:42.064Z,0.40
2023-04-02T12:29:42.082Z,0.60
2023-04-02T12:30:42.055Z,0.50
2023-04-02T12:31:42.042Z,0.50
2023-04-02T12:32:42.020Z,0.50
2023-04-02T12:33:42.018Z,0.40
2023-04-02T12:34:42.000Z,0.60
2023-04-02T12:35:42.000Z,0.50
2023-04-02T12:36:41.967Z,0.50
2023-04-02T12:37:41.985Z,0.50
2023-04-02T12:38:41.960Z,0.40
2023-04-02T12:39:41.956Z,0.40
2023-04-02T12:40:41.937Z,0.50
2023-04-02T12:41:41.932Z,0.50
2023-04-02T12:42:41.913Z,0.50
2023-04-02T12:43:41.924Z,0.50
2023-04-02T12:44:41.905Z,0.50
2023-04-02T12:45:41.922Z,0.60
2023-04-02T12:46:41.869Z,0.50
2023-04-02T12:47:41.923Z,0.50
2023-04-02T12:48:41.834Z,0.60
2023-04-02T12:49:41.850Z,0.50
2023-04-02T12:50:41.844Z,0.50
2023-04-02T12:51:41.855Z,0.40
2023-04-02T12:52:41.792Z,0.70
2023-04-02T12:53:41.816Z,0.40
2023-04-02T12:54:41.797Z,0.60
2023-04-02T12:55:41.802Z,0.40
2023-04-02T12:56:41.769Z,0.50
2023-04-02T12:57:41.792Z,0.50
2023-04-02T12:58:41.735Z,0.60
2023-04-02T12:59:41.733Z,0.60
2023-04-02T13:00:41.724Z,0.70
2023-04-02T13:01:41.738Z,0.50
2023-04-02T13:02:41.708Z,0.50
2023-04-02T13:03:41.745Z,0.60
2023-04-02T13:04:41.664Z,0.50
2023-04-02T13:05:41.689Z,0.40
2023-04-02T13:06:41.648Z,0.50
2023-04-02T13:07:41.677Z,0.70
2023-04-02T13:08:41.622Z,0.50
2023-04-02T13:09:41.634Z,0.50
2023-04-02T13:10:41.605Z,0.60
2023-04-02T13:11:41.624Z,0.60
2023-04-02T13:12:41.583Z,0.40
2023-04-02T13:13:41.586Z,0.50
2023-04-02T13:14:41.560Z,0.40
2023-04-02T13:15:41.587Z,0.60
2023-04-02T13:16:41.561Z,0.40
2023-04-02T13:17:41.572Z,0.40
2023-04-02T13:18:41.516Z,0.60
2023-04-02T13:19:41.534Z,0.70
2023-04-02T13:20:41.518Z,0.40